Time;durP1;ratioP1;P1;durP2;ratioP2;P2;SDS_P1;SDS_P2;PMS_P1;PMS_P2;Temp;Humidity;BMP_temperature;BMP_pressure;BME280_temperature;BME280_humidity;BME280_pressure;Samples;Min_cycle;Max_cycle;Signal;HPM_P1;HPM_P2
2023/10/07 00:02:50;;;;;;;;;;;17.50;99.90;;;;;;5109434;28;20015;-77
2023/10/07 00:05:16;;;;;;;;;;;17.60;99.90;;;;;;5082183;28;19998;-76
2023/10/07 00:07:44;;;;;;;;;;;17.60;99.90;;;;;;5067404;28;19916;-76
2023/10/07 00:10:24;;;;;;;;;;;17.50;99.90;;;;;;5104542;28;19951;-77
2023/10/07 00:12:57;;;;;;;;;;;17.60;99.90;;;;;;5091219;28;19931;-74
2023/10/07 00:15:29;;;;;;;;;;;17.60;99.90;;;;;;5082960;28;19920;-74
2023/10/07 00:18:00;;;;;;;;;;;17.50;99.90;;;;;;5092840;28;19919;-74
2023/10/07 00:20:33;;;;;;;;;;;17.50;99.90;;;;;;5077852;28;19924;-74
2023/10/07 00:23:00;;;;;;;;;;;17.60;99.90;;;;;;5096718;28;19919;-74
2023/10/07 00:25:30;;;;;;;;;;;17.50;99.90;;;;;;5091374;28;19970;-74
2023/10/07 00:27:58;;;;;;;;;;;17.50;99.90;;;;;;5086518;28;19916;-74
2023/10/07 00:30:27;;;;;;;;;;;17.60;99.90;;;;;;5093689;28;19919;-74
2023/10/07 00:32:55;;;;;;;;;;;17.60;99.90;;;;;;5093964;28;19924;-74
2023/10/07 00:35:27;;;;;;;;;;;17.60;99.90;;;;;;5102726;28;20010;-74
2023/10/07 00:37:53;;;;;;;;;;;17.50;99.90;;;;;;5099064;28;19930;-74
2023/10/07 00:40:32;;;;;;;;;;;17.50;99.90;;;;;;5091696;28;19920;-74
2023/10/07 00:42:58;;;;;;;;;;;17.60;99.90;;;;;;5094230;28;19924;-76
2023/10/07 00:45:26;;;;;;;;;;;17.50;99.90;;;;;;5093250;28;19941;-74
2023/10/07 00:47:53;;;;;;;;;;;17.50;99.90;;;;;;5096822;28;19942;-74
2023/10/07 00:50:25;;;;;;;;;;;17.50;99.90;;;;;;5079658;28;19916;-74
2023/10/07 00:55:28;;;;;;;;;;;17.50;99.90;;;;;;5087902;28;20045;-74
2023/10/07 00:58:04;;;;;;;;;;;17.40;99.90;;;;;;5099877;28;20286;-75
2023/10/07 01:03:13;;;;;;;;;;;17.30;99.90;;;;;;5101663;28;20367;-74
2023/10/07 01:05:44;;;;;;;;;;;17.20;99.90;;;;;;5095470;28;20383;-74
2023/10/07 01:08:12;;;;;;;;;;;17.20;99.90;;;;;;5093852;28;20299;-76
2023/10/07 01:10:39;;;;;;;;;;;17.10;99.90;;;;;;5084515;28;19928;-77
2023/10/07 01:13:24;;;;;;;;;;;17.00;99.90;;;;;;5077855;28;19966;-76
2023/10/07 01:15:50;;;;;;;;;;;17.00;99.90;;;;;;5087470;28;19920;-77
2023/10/07 01:18:19;;;;;;;;;;;17.00;99.90;;;;;;5093897;28;19927;-76
2023/10/07 01:23:17;;;;;;;;;;;17.00;99.90;;;;;;5095011;28;19942;-77
2023/10/07 01:25:44;;;;;;;;;;;17.00;99.90;;;;;;5092229;28;19934;-76
2023/10/07 01:28:14;;;;;;;;;;;17.00;99.90;;;;;;5091291;28;20017;-76
2023/10/07 01:33:35;;;;;;;;;;;17.00;99.90;;;;;;5101981;28;19962;-77
2023/10/07 01:38:44;;;;;;;;;;;17.00;99.90;;;;;;5110510;28;19926;-76
2023/10/07 01:41:18;;;;;;;;;;;17.10;99.90;;;;;;5105504;28;20458;-76
2023/10/07 01:43:49;;;;;;;;;;;17.20;99.90;;;;;;5089933;28;19919;-76
2023/10/07 01:46:19;;;;;;;;;;;17.20;99.90;;;;;;5091004;28;19923;-76
2023/10/07 01:48:55;;;;;;;;;;;17.20;99.90;;;;;;5108901;28;19922;-76
2023/10/07 01:51:21;;;;;;;;;;;17.20;99.90;;;;;;5101906;28;19927;-76
2023/10/07 01:53:47;;;;;;;;;;;17.30;99.90;;;;;;5079633;28;19917;-76
2023/10/07 01:56:14;;;;;;;;;;;17.20;99.90;;;;;;5089207;28;19924;-76
2023/10/07 01:58:40;;;;;;;;;;;17.30;99.90;;;;;;5083682;28;20380;-76
2023/10/07 02:01:05;;;;;;;;;;;17.20;99.90;;;;;;5080805;28;19920;-77
2023/10/07 02:03:32;;;;;;;;;;;17.30;99.90;;;;;;5077706;28;19916;-76
2023/10/07 02:05:58;;;;;;;;;;;17.30;99.90;;;;;;5079878;28;20369;-76
2023/10/07 02:08:25;;;;;;;;;;;17.30;99.90;;;;;;5091714;28;19923;-76
2023/10/07 02:10:58;;;;;;;;;;;17.40;99.90;;;;;;5089801;28;19938;-76
2023/10/07 02:13:27;;;;;;;;;;;17.40;99.90;;;;;;5090815;28;19916;-76
2023/10/07 02:15:54;;;;;;;;;;;17.40;99.90;;;;;;5082551;28;19920;-76
2023/10/07 02:18:20;;;;;;;;;;;17.40;99.90;;;;;;5041405;28;20393;-77
2023/10/07 02:20:50;;;;;;;;;;;17.50;99.90;;;;;;5077140;28;19920;-76
2023/10/07 02:23:37;;;;;;;;;;;17.50;99.90;;;;;;5085330;28;19928;-76
2023/10/07 02:26:06;;;;;;;;;;;17.50;99.90;;;;;;5085465;28;19963;-76
2023/10/07 02:28:35;;;;;;;;;;;17.50;99.90;;;;;;5062937;28;19923;-76
2023/10/07 02:31:07;;;;;;;;;;;17.50;99.90;;;;;;5083719;28;20287;-76
2023/10/07 02:33:41;;;;;;;;;;;17.50;99.90;;;;;;5088086;28;19965;-76
2023/10/07 02:36:11;;;;;;;;;;;17.50;99.90;;;;;;5102791;28;20025;-76
2023/10/07 02:38:41;;;;;;;;;;;17.50;99.90;;;;;;5088357;28;19993;-76
2023/10/07 02:41:17;;;;;;;;;;;17.60;99.90;;;;;;5089113;28;19935;-76
2023/10/07 02:43:44;;;;;;;;;;;17.60;99.90;;;;;;5098135;28;21968;-77
2023/10/07 02:46:22;;;;;;;;;;;17.60;99.90;;;;;;5102729;28;20279;-76
2023/10/07 02:48:48;;;;;;;;;;;17.50;99.90;;;;;;5104778;28;19916;-77
2023/10/07 02:51:13;;;;;;;;;;;17.60;99.90;;;;;;5100417;28;19927;-77
2023/10/07 02:53:39;;;;;;;;;;;17.60;99.90;;;;;;5105845;28;19919;-76
2023/10/07 02:56:17;;;;;;;;;;;17.60;99.90;;;;;;5100395;28;20379;-77
2023/10/07 02:59:01;;;;;;;;;;;17.60;99.90;;;;;;5099617;28;20363;-77
2023/10/07 03:01:28;;;;;;;;;;;17.60;99.90;;;;;;5083496;28;19930;-76
2023/10/07 03:03:54;;;;;;;;;;;17.60;99.90;;;;;;5101227;28;19927;-76
2023/10/07 03:06:25;;;;;;;;;;;17.60;99.90;;;;;;5096797;28;20275;-77
2023/10/07 03:08:59;;;;;;;;;;;17.60;99.90;;;;;;5092179;28;19916;-77
2023/10/07 03:11:35;;;;;;;;;;;17.60;99.90;;;;;;5091442;28;19981;-77
2023/10/07 03:14:03;;;;;;;;;;;17.60;99.90;;;;;;5066050;28;19920;-76
2023/10/07 03:16:28;;;;;;;;;;;17.60;99.90;;;;;;5071917;28;19931;-77
2023/10/07 03:21:43;;;;;;;;;;;17.60;99.90;;;;;;5089770;28;19920;-76
2023/10/07 03:24:13;;;;;;;;;;;17.60;99.90;;;;;;5089278;28;19915;-76
2023/10/07 03:26:40;;;;;;;;;;;17.60;99.90;;;;;;5089509;28;20324;-76
2023/10/07 03:29:07;;;;;;;;;;;17.60;99.90;;;;;;5088301;28;19920;-77
2023/10/07 03:31:47;;;;;;;;;;;17.60;99.90;;;;;;5090595;28;19977;-76
2023/10/07 03:34:13;;;;;;;;;;;17.60;99.90;;;;;;5070951;28;19924;-76
2023/10/07 03:37:14;;;;;;;;;;;17.60;99.90;;;;;;5087261;28;19916;-76
2023/10/07 03:39:42;;;;;;;;;;;17.60;99.90;;;;;;5080542;28;19920;-76
2023/10/07 03:42:09;;;;;;;;;;;17.60;99.90;;;;;;5081661;28;20008;-76
2023/10/07 03:44:37;;;;;;;;;;;17.60;99.90;;;;;;5084762;28;20343;-76
2023/10/07 03:47:03;;;;;;;;;;;17.50;99.90;;;;;;5073433;28;19981;-76
2023/10/07 03:49:37;;;;;;;;;;;17.50;99.90;;;;;;5088322;28;19999;-76
2023/10/07 03:52:19;;;;;;;;;;;17.60;99.90;;;;;;5072586;28;19965;-76
2023/10/07 03:54:46;;;;;;;;;;;17.50;99.90;;;;;;5086937;28;19925;-76
2023/10/07 03:57:15;;;;;;;;;;;17.50;99.90;;;;;;5089944;28;19916;-76
2023/10/07 03:59:41;;;;;;;;;;;17.60;99.90;;;;;;5072577;28;20291;-73
2023/10/07 04:05:00;;;;;;;;;;;17.50;99.90;;;;;;5073346;28;20018;-76
2023/10/07 04:07:27;;;;;;;;;;;17.50;99.90;;;;;;5082898;28;19916;-76
2023/10/07 04:09:53;;;;;;;;;;;17.50;99.90;;;;;;5084008;28;19916;-76
2023/10/07 04:12:19;;;;;;;;;;;17.60;99.90;;;;;;5089269;28;19920;-76
2023/10/07 04:14:45;;;;;;;;;;;17.50;99.90;;;;;;5084345;28;19919;-76
2023/10/07 04:17:13;;;;;;;;;;;17.60;99.90;;;;;;5073511;28;19977;-76
2023/10/07 04:19:42;;;;;;;;;;;17.50;99.90;;;;;;5089138;28;20327;-76
2023/10/07 04:22:08;;;;;;;;;;;17.50;99.90;;;;;;5073487;28;20011;-76
2023/10/07 04:24:35;;;;;;;;;;;17.50;99.90;;;;;;5088588;28;19951;-76
2023/10/07 04:27:03;;;;;;;;;;;17.60;99.90;;;;;;5086055;28;19978;-76
2023/10/07 04:29:30;;;;;;;;;;;17.50;99.90;;;;;;5063915;28;20019;-76
2023/10/07 04:32:10;;;;;;;;;;;17.50;99.90;;;;;;5097513;28;19979;-76
2023/10/07 04:34:45;;;;;;;;;;;17.60;99.90;;;;;;5107250;28;19961;-77
2023/10/07 04:37:14;;;;;;;;;;;17.50;99.90;;;;;;5112793;28;19927;-76
2023/10/07 04:40:42;;;;;;;;;;;17.50;99.90;;;;;;5105365;28;19971;-76
2023/10/07 04:42:36;;;;;;;;;;;17.50;99.90;;;;;;5089946;28;19924;-76
2023/10/07 04:45:21;;;;;;;;;;;17.50;99.90;;;;;;5088944;28;20389;-76
2023/10/07 04:47:50;;;;;;;;;;;17.50;99.90;;;;;;5077281;28;20002;-76
2023/10/07 04:50:15;;;;;;;;;;;17.50;99.90;;;;;;5089414;28;19920;-76
2023/10/07 04:52:43;;;;;;;;;;;17.50;99.90;;;;;;5074675;28;19942;-76
2023/10/07 04:55:19;;;;;;;;;;;17.50;99.90;;;;;;5070447;28;20261;-76
2023/10/07 04:57:56;;;;;;;;;;;17.50;99.90;;;;;;5088955;28;19916;-77
2023/10/07 05:02:57;;;;;;;;;;;17.50;99.90;;;;;;5085808;28;19919;-77
2023/10/07 05:05:24;;;;;;;;;;;17.40;99.90;;;;;;5089268;28;19920;-77
2023/10/07 05:07:50;;;;;;;;;;;17.50;99.90;;;;;;5089742;28;19989;-77
2023/10/07 05:10:20;;;;;;;;;;;17.50;99.90;;;;;;5073363;28;20355;-77
2023/10/07 05:12:46;;;;;;;;;;;17.50;99.90;;;;;;5084278;28;20371;-76
2023/10/07 05:15:13;;;;;;;;;;;17.50;99.90;;;;;;5092591;28;19924;-77
2023/10/07 05:17:39;;;;;;;;;;;17.50;99.90;;;;;;5057984;28;19958;-77
2023/10/07 05:20:26;;;;;;;;;;;17.50;99.90;;;;;;5074047;28;19956;-77
2023/10/07 05:22:50;;;;;;;;;;;17.50;99.90;;;;;;5090480;28;19920;-77
2023/10/07 05:25:16;;;;;;;;;;;17.50;99.90;;;;;;5073352;28;19927;-77
2023/10/07 05:27:41;;;;;;;;;;;17.50;99.90;;;;;;5084718;28;19923;-77
2023/10/07 05:30:12;;;;;;;;;;;17.50;99.90;;;;;;5088930;28;19967;-77
2023/10/07 05:32:39;;;;;;;;;;;17.40;99.90;;;;;;5100303;28;19916;-76
2023/10/07 05:35:05;;;;;;;;;;;17.50;99.90;;;;;;5097529;28;19935;-77
2023/10/07 05:37:30;;;;;;;;;;;17.40;99.90;;;;;;5089128;28;19916;-75
2023/10/07 05:39:56;;;;;;;;;;;17.50;99.90;;;;;;5096287;28;19943;-76
2023/10/07 05:42:22;;;;;;;;;;;17.50;99.90;;;;;;5081315;28;19920;-76
2023/10/07 05:44:48;;;;;;;;;;;17.50;99.90;;;;;;5085657;28;20370;-75
2023/10/07 05:47:14;;;;;;;;;;;17.40;99.90;;;;;;5085032;28;19920;-76
2023/10/07 05:49:41;;;;;;;;;;;17.50;99.90;;;;;;5084328;28;20390;-75
2023/10/07 05:52:06;;;;;;;;;;;17.50;99.90;;;;;;5089763;28;19923;-76
2023/10/07 05:54:32;;;;;;;;;;;17.40;99.90;;;;;;5074239;28;19920;-76
2023/10/07 05:56:58;;;;;;;;;;;17.40;99.90;;;;;;5086392;28;20435;-76
2023/10/07 05:59:24;;;;;;;;;;;17.40;99.90;;;;;;5090334;28;19926;-76
2023/10/07 06:01:49;;;;;;;;;;;17.40;99.90;;;;;;5089177;28;19951;-77
2023/10/07 06:04:15;;;;;;;;;;;17.40;99.90;;;;;;5089172;28;20009;-76
2023/10/07 06:06:44;;;;;;;;;;;17.30;99.90;;;;;;5073852;28;20009;-76
2023/10/07 06:09:13;;;;;;;;;;;17.20;99.90;;;;;;5086338;28;20394;-76
2023/10/07 06:11:39;;;;;;;;;;;17.20;99.90;;;;;;5089654;28;20270;-76
2023/10/07 06:14:06;;;;;;;;;;;17.20;99.90;;;;;;5071315;28;19924;-76
2023/10/07 06:16:32;;;;;;;;;;;17.10;99.90;;;;;;5088850;28;20452;-76
2023/10/07 06:18:58;;;;;;;;;;;17.10;99.90;;;;;;5086794;28;19919;-76
2023/10/07 06:21:27;;;;;;;;;;;17.10;99.90;;;;;;5067636;28;19999;-76
2023/10/07 06:23:58;;;;;;;;;;;17.10;99.90;;;;;;5085588;28;19923;-76
2023/10/07 06:26:24;;;;;;;;;;;17.10;99.90;;;;;;5089049;28;19931;-76
2023/10/07 06:28:50;;;;;;;;;;;17.10;99.90;;;;;;5082303;28;19927;-76
2023/10/07 06:31:34;;;;;;;;;;;17.10;99.90;;;;;;5069534;28;20287;-76
2023/10/07 06:34:00;;;;;;;;;;;17.10;99.90;;;;;;5080177;28;19923;-76
2023/10/07 06:36:26;;;;;;;;;;;17.00;99.90;;;;;;5081508;28;19920;-76
2023/10/07 06:38:53;;;;;;;;;;;17.00;99.90;;;;;;5070590;28;20337;-76
2023/10/07 06:41:19;;;;;;;;;;;17.10;99.90;;;;;;5071361;28;19947;-76
2023/10/07 06:43:50;;;;;;;;;;;17.10;99.90;;;;;;5079338;28;20047;-76
2023/10/07 06:46:21;;;;;;;;;;;17.10;99.90;;;;;;5089622;28;19919;-76
2023/10/07 06:48:50;;;;;;;;;;;17.10;99.90;;;;;;5075365;28;19920;-76
2023/10/07 06:51:16;;;;;;;;;;;17.20;99.90;;;;;;5082377;28;19927;-76
2023/10/07 06:53:45;;;;;;;;;;;17.10;99.90;;;;;;5095449;28;19928;-76
2023/10/07 06:56:21;;;;;;;;;;;17.20;99.90;;;;;;5087594;28;19916;-76
2023/10/07 06:58:53;;;;;;;;;;;17.10;99.90;;;;;;5075290;28;19920;-76
2023/10/07 07:04:10;;;;;;;;;;;17.20;99.90;;;;;;5089216;28;19916;-77
2023/10/07 07:06:43;;;;;;;;;;;17.20;99.90;;;;;;5091691;28;19981;-78
2023/10/07 07:09:41;;;;;;;;;;;17.30;99.90;;;;;;5075676;28;20415;-76
2023/10/07 07:11:58;;;;;;;;;;;17.20;99.90;;;;;;5090076;28;20571;-75
2023/10/07 07:14:33;;;;;;;;;;;17.30;99.90;;;;;;5090297;28;19924;-75
2023/10/07 07:17:29;;;;;;;;;;;17.30;99.90;;;;;;5096726;28;19931;-76
2023/10/07 07:22:33;;;;;;;;;;;17.30;99.90;;;;;;5088703;28;20263;-76
2023/10/07 07:25:04;;;;;;;;;;;17.30;99.90;;;;;;5085521;28;19920;-75
2023/10/07 07:27:33;;;;;;;;;;;17.30;99.90;;;;;;5090103;28;19924;-75
2023/10/07 07:30:02;;;;;;;;;;;17.30;99.90;;;;;;5090151;28;19937;-75
2023/10/07 07:32:35;;;;;;;;;;;17.40;99.90;;;;;;5074061;28;20729;-75
2023/10/07 07:35:04;;;;;;;;;;;17.40;99.90;;;;;;5087676;28;19928;-75
2023/10/07 07:37:33;;;;;;;;;;;17.40;99.90;;;;;;5089651;28;20375;-74
2023/10/07 07:40:09;;;;;;;;;;;17.40;99.90;;;;;;5086527;28;19938;-75
2023/10/07 07:42:35;;;;;;;;;;;17.50;99.90;;;;;;5089395;28;20451;-75
2023/10/07 07:45:01;;;;;;;;;;;17.60;99.90;;;;;;5072302;28;19927;-75
2023/10/07 07:47:33;;;;;;;;;;;17.60;99.90;;;;;;5089772;28;19916;-75
2023/10/07 07:50:02;;;;;;;;;;;17.70;99.90;;;;;;5084590;28;19963;-75
2023/10/07 07:52:27;;;;;;;;;;;17.70;99.90;;;;;;5089248;28;19927;-75
2023/10/07 07:54:54;;;;;;;;;;;17.70;99.90;;;;;;5089925;28;19920;-75
2023/10/07 07:57:22;;;;;;;;;;;17.80;99.90;;;;;;5088763;28;20051;-75
2023/10/07 07:59:48;;;;;;;;;;;17.80;99.90;;;;;;5086152;28;20259;-75
2023/10/07 08:02:16;;;;;;;;;;;17.90;99.90;;;;;;5088710;28;19995;-75
2023/10/07 08:04:46;;;;;;;;;;;18.00;99.90;;;;;;5066154;28;19950;-75
2023/10/07 08:07:27;;;;;;;;;;;18.00;99.90;;;;;;5070496;28;19959;-75
2023/10/07 08:09:54;;;;;;;;;;;18.00;99.90;;;;;;5093938;28;20393;-75
2023/10/07 08:12:28;;;;;;;;;;;18.10;99.90;;;;;;5091121;28;20405;-75
2023/10/07 08:14:58;;;;;;;;;;;18.10;99.90;;;;;;5090013;28;20387;-75
2023/10/07 08:17:27;;;;;;;;;;;18.10;99.90;;;;;;5079017;28;20411;-75
2023/10/07 08:19:57;;;;;;;;;;;18.10;99.90;;;;;;5093133;28;20303;-77
2023/10/07 08:22:27;;;;;;;;;;;18.10;99.90;;;;;;5074404;28;19926;-75
2023/10/07 08:24:52;;;;;;;;;;;18.10;99.90;;;;;;5091595;28;20372;-75
2023/10/07 08:30:10;;;;;;;;;;;18.10;99.90;;;;;;5093534;28;19920;-75
2023/10/07 08:32:37;;;;;;;;;;;18.10;99.90;;;;;;5098274;28;20397;-75
2023/10/07 08:35:14;;;;;;;;;;;18.00;99.90;;;;;;5079813;28;20412;-75
2023/10/07 08:37:46;;;;;;;;;;;18.00;99.90;;;;;;5092424;28;19927;-75
2023/10/07 08:40:26;;;;;;;;;;;18.00;99.90;;;;;;5096864;28;19916;-75
2023/10/07 08:42:58;;;;;;;;;;;18.00;99.90;;;;;;5093963;28;19916;-75
2023/10/07 08:45:25;;;;;;;;;;;18.10;99.90;;;;;;5104882;28;19924;-75
2023/10/07 08:47:51;;;;;;;;;;;18.10;99.90;;;;;;5092053;28;19919;-75
2023/10/07 08:50:23;;;;;;;;;;;18.10;99.90;;;;;;5104250;28;19923;-75
2023/10/07 08:53:02;;;;;;;;;;;18.20;99.90;;;;;;5099006;28;19923;-75
2023/10/07 08:55:30;;;;;;;;;;;18.30;99.90;;;;;;5098428;28;19924;-75
2023/10/07 08:57:56;;;;;;;;;;;18.20;99.90;;;;;;5099412;28;19919;-75
2023/10/07 09:00:29;;;;;;;;;;;18.20;99.90;;;;;;5108977;28;19920;-75
2023/10/07 09:02:55;;;;;;;;;;;18.20;99.90;;;;;;5081133;28;19927;-75
2023/10/07 09:05:21;;;;;;;;;;;18.20;99.90;;;;;;5100630;28;19920;-75
2023/10/07 09:07:49;;;;;;;;;;;18.20;99.90;;;;;;5106757;28;19922;-75
2023/10/07 09:10:16;;;;;;;;;;;18.20;99.90;;;;;;5103096;28;19916;-75
2023/10/07 09:12:56;;;;;;;;;;;18.20;99.90;;;;;;5106768;28;19919;-75
2023/10/07 09:15:29;;;;;;;;;;;18.20;99.90;;;;;;5097620;28;19938;-76
2023/10/07 09:18:01;;;;;;;;;;;18.20;99.90;;;;;;5097364;28;19924;-77
2023/10/07 09:20:31;;;;;;;;;;;18.30;99.90;;;;;;5087029;28;19916;-76
2023/10/07 09:23:15;;;;;;;;;;;18.30;99.90;;;;;;5091226;28;19915;-76
2023/10/07 09:25:46;;;;;;;;;;;18.30;99.90;;;;;;5090336;28;20699;-76
2023/10/07 09:28:13;;;;;;;;;;;18.30;99.90;;;;;;5090146;28;19937;-76
2023/10/07 09:33:14;;;;;;;;;;;18.30;99.90;;;;;;5095235;28;19920;-76
2023/10/07 09:35:42;;;;;;;;;;;18.30;99.90;;;;;;5090025;28;19927;-76
2023/10/07 09:38:12;;;;;;;;;;;18.20;99.90;;;;;;5090756;28;19924;-76
2023/10/07 09:43:29;;;;;;;;;;;18.30;99.90;;;;;;5089778;28;19926;-77
2023/10/07 09:45:58;;;;;;;;;;;18.30;99.90;;;;;;5079283;28;19920;-75
2023/10/07 09:48:28;;;;;;;;;;;18.20;99.90;;;;;;5071475;28;19966;-75
2023/10/07 09:50:56;;;;;;;;;;;18.20;99.90;;;;;;5086025;28;19968;-76
2023/10/07 09:53:37;;;;;;;;;;;18.20;99.90;;;;;;5079232;28;20323;-76
2023/10/07 09:56:11;;;;;;;;;;;18.20;99.90;;;;;;5085072;28;19922;-76
2023/10/07 09:58:36;;;;;;;;;;;18.20;99.90;;;;;;5071622;28;20340;-76
2023/10/07 10:01:08;;;;;;;;;;;18.20;99.90;;;;;;5081375;28;19924;-76
2023/10/07 10:03:59;;;;;;;;;;;18.20;99.90;;;;;;5068605;28;20351;-76
2023/10/07 10:06:47;;;;;;;;;;;18.20;99.90;;;;;;5080449;28;20109;-76
2023/10/07 10:09:14;;;;;;;;;;;18.30;99.90;;;;;;5081461;28;22107;-77
2023/10/07 10:16:46;;;;;;;;;;;18.40;99.90;;;;;;5076669;28;19952;-76
2023/10/07 10:19:24;;;;;;;;;;;18.40;99.90;;;;;;5084166;28;20101;-77
2023/10/07 10:21:51;;;;;;;;;;;18.50;99.90;;;;;;5082348;28;19920;-76
2023/10/07 10:24:22;;;;;;;;;;;18.50;99.90;;;;;;5064591;28;19915;-77
2023/10/07 10:26:50;;;;;;;;;;;18.50;99.90;;;;;;5074831;28;19920;-76
2023/10/07 10:29:22;;;;;;;;;;;18.60;99.90;;;;;;5080476;28;20903;-75
2023/10/07 10:31:51;;;;;;;;;;;18.50;99.90;;;;;;5077929;28;20006;-75
2023/10/07 10:34:17;;;;;;;;;;;18.60;99.90;;;;;;5083031;28;19920;-77
2023/10/07 10:36:43;;;;;;;;;;;18.70;99.90;;;;;;5089426;28;20386;-77
2023/10/07 10:39:13;;;;;;;;;;;18.70;99.90;;;;;;5068524;28;19927;-76
2023/10/07 10:41:39;;;;;;;;;;;18.60;99.90;;;;;;5061264;28;19925;-76
2023/10/07 10:44:10;;;;;;;;;;;18.60;99.90;;;;;;5087719;28;19924;-75
2023/10/07 10:46:49;;;;;;;;;;;18.60;99.90;;;;;;5079544;28;19924;-77
2023/10/07 10:49:16;;;;;;;;;;;18.60;99.90;;;;;;5079675;28;19939;-77
2023/10/07 10:51:45;;;;;;;;;;;18.60;99.90;;;;;;5082252;28;19919;-77
2023/10/07 10:54:15;;;;;;;;;;;18.60;99.90;;;;;;5080441;28;20019;-76
2023/10/07 10:56:47;;;;;;;;;;;18.60;99.90;;;;;;5068419;28;19970;-76
2023/10/07 10:59:14;;;;;;;;;;;18.50;99.90;;;;;;5077691;28;20385;-78
2023/10/07 11:01:43;;;;;;;;;;;18.50;99.90;;;;;;5066185;28;19919;-76
2023/10/07 11:04:12;;;;;;;;;;;18.50;99.90;;;;;;5087193;28;20003;-76
2023/10/07 11:06:39;;;;;;;;;;;18.50;99.90;;;;;;5085013;28;19924;-76
2023/10/07 11:09:05;;;;;;;;;;;18.50;99.90;;;;;;5086299;28;19931;-75
2023/10/07 11:11:35;;;;;;;;;;;18.40;99.90;;;;;;5082983;28;19916;-76
2023/10/07 11:14:10;;;;;;;;;;;18.40;99.90;;;;;;5067503;28;19928;-76
2023/10/07 11:16:45;;;;;;;;;;;18.40;99.90;;;;;;5086021;28;19924;-76
2023/10/07 11:19:12;;;;;;;;;;;18.40;99.90;;;;;;5089105;28;19923;-76
2023/10/07 11:21:48;;;;;;;;;;;18.40;99.90;;;;;;5067671;28;19931;-76
2023/10/07 11:24:27;;;;;;;;;;;18.40;99.90;;;;;;5087087;28;19934;-77
2023/10/07 11:26:56;;;;;;;;;;;18.40;99.90;;;;;;5080320;28;19964;-76
2023/10/07 11:29:22;;;;;;;;;;;18.40;99.90;;;;;;5086471;28;20518;-76
2023/10/07 11:31:57;;;;;;;;;;;18.40;99.90;;;;;;5065904;28;20359;-76
2023/10/07 11:34:29;;;;;;;;;;;18.40;99.90;;;;;;5082270;28;20002;-75
2023/10/07 11:37:04;;;;;;;;;;;18.40;99.90;;;;;;5081427;28;20566;-76
2023/10/07 11:39:30;;;;;;;;;;;18.30;99.90;;;;;;5084206;28;20403;-75
2023/10/07 11:41:55;;;;;;;;;;;18.30;99.90;;;;;;5080639;28;19920;-76
2023/10/07 11:44:22;;;;;;;;;;;18.20;99.90;;;;;;5084076;28;19920;-76
2023/10/07 11:46:47;;;;;;;;;;;18.30;99.90;;;;;;5074428;28;19927;-76
2023/10/07 11:49:15;;;;;;;;;;;18.30;99.90;;;;;;5081557;28;19924;-76
2023/10/07 11:51:40;;;;;;;;;;;18.40;99.90;;;;;;5068969;28;20332;-76
2023/10/07 11:54:06;;;;;;;;;;;18.50;99.90;;;;;;5084730;28;19976;-76
2023/10/07 11:56:32;;;;;;;;;;;18.70;99.90;;;;;;5084735;28;19919;-76
2023/10/07 11:58:58;;;;;;;;;;;18.70;99.90;;;;;;5081899;28;19920;-75
2023/10/07 12:01:24;;;;;;;;;;;18.70;99.90;;;;;;5067851;28;21226;-76
2023/10/07 12:03:49;;;;;;;;;;;18.60;99.90;;;;;;5061969;28;19916;-76
2023/10/07 12:06:15;;;;;;;;;;;18.60;99.90;;;;;;5087815;28;20299;-76
2023/10/07 12:08:41;;;;;;;;;;;18.40;99.90;;;;;;5086423;28;20427;-75
2023/10/07 12:11:08;;;;;;;;;;;18.40;99.90;;;;;;5069714;28;19926;-75
2023/10/07 12:13:34;;;;;;;;;;;18.40;99.90;;;;;;5089131;28;19966;-76
2023/10/07 12:16:00;;;;;;;;;;;18.30;99.90;;;;;;5086183;28;19924;-77
2023/10/07 12:18:25;;;;;;;;;;;18.30;99.90;;;;;;5087696;28;19924;-77
2023/10/07 12:20:53;;;;;;;;;;;18.30;99.90;;;;;;5073145;28;20001;-77
2023/10/07 12:23:18;;;;;;;;;;;18.30;99.90;;;;;;5071908;28;19931;-77
2023/10/07 12:25:44;;;;;;;;;;;18.30;99.90;;;;;;5086804;28;19916;-77
2023/10/07 12:28:10;;;;;;;;;;;18.30;99.90;;;;;;5086148;28;20062;-77
2023/10/07 12:30:37;;;;;;;;;;;18.30;99.90;;;;;;5086970;28;19926;-76
2023/10/07 12:33:03;;;;;;;;;;;18.30;99.90;;;;;;5065779;28;19919;-78
2023/10/07 12:35:30;;;;;;;;;;;18.30;99.90;;;;;;5085859;28;19923;-77
2023/10/07 12:37:56;;;;;;;;;;;18.30;99.90;;;;;;5085146;28;19957;-77
2023/10/07 12:40:21;;;;;;;;;;;18.30;99.90;;;;;;5078555;28;19963;-78
2023/10/07 12:42:51;;;;;;;;;;;18.30;99.90;;;;;;5082724;28;20061;-77
2023/10/07 12:45:17;;;;;;;;;;;18.40;99.90;;;;;;5083219;28;19923;-77
2023/10/07 12:47:43;;;;;;;;;;;18.40;99.90;;;;;;5083324;28;19923;-77
2023/10/07 12:50:28;;;;;;;;;;;18.40;99.90;;;;;;5081536;28;20385;-76
2023/10/07 12:52:55;;;;;;;;;;;18.40;99.90;;;;;;5083230;28;19922;-76
2023/10/07 12:55:21;;;;;;;;;;;18.30;99.90;;;;;;5085229;28;19977;-76
2023/10/07 12:57:51;;;;;;;;;;;18.30;99.90;;;;;;5087242;28;19924;-76
2023/10/07 13:00:21;;;;;;;;;;;18.30;99.90;;;;;;5080263;28;20287;-77
2023/10/07 13:02:48;;;;;;;;;;;18.20;99.90;;;;;;5089289;28;19923;-77
2023/10/07 13:05:18;;;;;;;;;;;18.20;99.90;;;;;;5085000;28;20646;-77
2023/10/07 13:07:47;;;;;;;;;;;18.20;99.90;;;;;;5089306;28;19946;-76
2023/10/07 13:10:19;;;;;;;;;;;18.20;99.90;;;;;;5084775;28;20781;-76
2023/10/07 13:12:45;;;;;;;;;;;18.10;99.90;;;;;;5087549;28;20051;-79
2023/10/07 13:15:18;;;;;;;;;;;18.10;99.90;;;;;;5071360;28;20018;-77
2023/10/07 13:17:47;;;;;;;;;;;18.10;99.90;;;;;;5091445;28;19920;-77
2023/10/07 13:20:13;;;;;;;;;;;18.10;99.90;;;;;;5089448;28;19922;-79
2023/10/07 13:22:39;;;;;;;;;;;18.10;99.90;;;;;;5086901;28;19965;-76
2023/10/07 13:25:07;;;;;;;;;;;18.10;99.90;;;;;;5094066;28;19931;-76
2023/10/07 13:27:32;;;;;;;;;;;18.00;99.90;;;;;;5089768;28;19920;-77
2023/10/07 13:30:03;;;;;;;;;;;18.00;99.90;;;;;;5080165;28;19936;-76
2023/10/07 13:32:30;;;;;;;;;;;18.00;99.90;;;;;;5077081;28;20555;-76
2023/10/07 13:34:56;;;;;;;;;;;18.00;99.90;;;;;;5061521;28;19931;-76
2023/10/07 13:37:22;;;;;;;;;;;18.00;99.90;;;;;;5087796;28;19920;-77
2023/10/07 13:39:48;;;;;;;;;;;17.90;99.90;;;;;;5067002;28;19923;-77
2023/10/07 13:42:13;;;;;;;;;;;17.90;99.90;;;;;;5066713;28;20354;-76
2023/10/07 13:44:40;;;;;;;;;;;17.90;99.90;;;;;;5082895;28;19919;-75
2023/10/07 13:47:07;;;;;;;;;;;17.80;99.90;;;;;;5085672;28;20007;-74
2023/10/07 13:49:33;;;;;;;;;;;17.80;99.90;;;;;;5071178;28;19974;-76
2023/10/07 13:52:05;;;;;;;;;;;17.80;99.90;;;;;;5073610;28;19920;-77
2023/10/07 13:57:02;;;;;;;;;;;17.70;99.90;;;;;;5087740;28;20109;-77
2023/10/07 13:59:28;;;;;;;;;;;17.70;99.90;;;;;;5087431;28;19920;-77
2023/10/07 14:01:55;;;;;;;;;;;17.70;99.90;;;;;;5066597;28;19920;-77
2023/10/07 14:04:24;;;;;;;;;;;17.70;99.90;;;;;;5070940;28;19920;-77
2023/10/07 14:06:54;;;;;;;;;;;17.60;99.90;;;;;;5086792;28;20023;-77
2023/10/07 14:09:28;;;;;;;;;;;17.70;99.90;;;;;;5084018;28;19923;-76
2023/10/07 14:11:57;;;;;;;;;;;17.60;99.90;;;;;;5063242;28;19916;-77
2023/10/07 14:14:23;;;;;;;;;;;17.70;99.90;;;;;;5071603;28;19927;-77
2023/10/07 14:16:55;;;;;;;;;;;17.70;99.90;;;;;;5077195;28;19924;-77
2023/10/07 14:19:22;;;;;;;;;;;17.70;99.90;;;;;;5075606;28;19920;-77
2023/10/07 14:21:50;;;;;;;;;;;17.60;99.90;;;;;;5075031;28;20015;-77
2023/10/07 14:24:15;;;;;;;;;;;17.60;99.90;;;;;;5077598;28;19968;-77
2023/10/07 14:26:43;;;;;;;;;;;17.60;99.90;;;;;;5071938;28;20005;-77
2023/10/07 14:29:09;;;;;;;;;;;17.60;99.90;;;;;;5067522;28;19984;-77
2023/10/07 14:31:36;;;;;;;;;;;17.60;99.90;;;;;;5081522;28;19920;-77
2023/10/07 14:34:07;;;;;;;;;;;17.60;99.90;;;;;;5077715;28;19924;-77
2023/10/07 14:36:38;;;;;;;;;;;17.50;99.90;;;;;;5075831;28;19917;-77
2023/10/07 14:39:06;;;;;;;;;;;17.50;99.90;;;;;;5063756;28;19920;-77
2023/10/07 14:41:33;;;;;;;;;;;17.60;99.90;;;;;;5075209;28;20283;-77
2023/10/07 14:43:59;;;;;;;;;;;17.50;99.90;;;;;;5073725;28;19924;-77
2023/10/07 14:46:25;;;;;;;;;;;17.50;99.90;;;;;;5084929;28;20001;-77
2023/10/07 14:48:52;;;;;;;;;;;17.50;99.90;;;;;;5076894;28;20464;-74
2023/10/07 14:51:17;;;;;;;;;;;17.50;99.90;;;;;;5078719;28;19923;-75
2023/10/07 14:53:44;;;;;;;;;;;17.50;99.90;;;;;;5077923;28;20368;-75
2023/10/07 14:56:10;;;;;;;;;;;17.50;99.90;;;;;;5085159;28;19920;-74
2023/10/07 14:58:36;;;;;;;;;;;17.50;99.90;;;;;;5080000;28;19916;-74
2023/10/07 15:01:03;;;;;;;;;;;17.60;99.90;;;;;;5069436;28;19920;-74
2023/10/07 15:03:29;;;;;;;;;;;17.60;99.90;;;;;;5081141;28;19950;-74
2023/10/07 15:05:56;;;;;;;;;;;17.60;99.90;;;;;;5052228;28;19931;-75
2023/10/07 15:08:23;;;;;;;;;;;17.60;99.90;;;;;;5084032;28;19965;-74
2023/10/07 15:10:49;;;;;;;;;;;17.60;99.90;;;;;;5056686;28;19963;-75
2023/10/07 15:13:18;;;;;;;;;;;17.60;99.90;;;;;;5075501;28;19933;-75